Fern Park, Florida
Current Conditions -  °F | °C
As of 2:53 PM on Thursday 30 Oct 2014 (Local Time) from KORL Reporting Station
Few Clouds Few Clouds  
Wind Chill: 82°   Ceiling: Unl
Heat Index: 84°   Visibility: 10mi
Dew Point: 65°   Wind: 7mph
Humidity: 56%   Direction: 280°W
Pressure: 29.9"   Gusts: NA
Location:  28.653°N, 81.3426°W
Report Text: KORL 301853Z 28006KT 10SM FEW110 28/18 A2990 RMK AO2 SLP127 T02780183
Loading
Personal Weather Stations






























Interactive Weather Map
Tropical Storm Tracking
New forecast layout! Learn more

10-Day Weather Forecast

Advertisements
Track Severe Weather on mobile